createdAt,value
2019-03-25T00:00:37.207Z,17.07
2019-03-25T00:03:06.181Z,16.63
2019-03-25T00:05:35.012Z,17.33
2019-03-25T00:08:03.976Z,16.13
2019-03-25T00:10:32.844Z,17.40
2019-03-25T00:13:01.680Z,17.27
2019-03-25T00:15:30.552Z,16.93
2019-03-25T00:17:59.418Z,16.90
2019-03-25T00:20:28.248Z,18.03
2019-03-25T00:22:57.106Z,16.37
2019-03-25T00:25:25.983Z,15.70
2019-03-25T00:27:54.818Z,21.90
2019-03-25T00:30:23.688Z,16.40
2019-03-25T00:32:52.559Z,16.53
2019-03-25T00:35:21.388Z,15.57
2019-03-25T00:37:50.259Z,17.63
2019-03-25T00:40:19.120Z,14.53
2019-03-25T00:42:47.950Z,17.17
2019-03-25T00:45:16.810Z,14.93
2019-03-25T00:47:45.680Z,13.50
2019-03-25T00:50:14.504Z,14.60
2019-03-25T00:52:43.380Z,13.40
2019-03-25T00:55:12.242Z,14.97
2019-03-25T00:57:41.079Z,17.37
2019-03-25T01:00:10.450Z,15.80
2019-03-25T01:02:39.312Z,14.53
2019-03-25T01:05:08.642Z,14.17
2019-03-25T01:07:37.520Z,16.00
2019-03-25T01:10:08.686Z,15.83
2019-03-25T01:12:37.582Z,15.30
2019-03-25T01:15:07.794Z,16.47
2019-03-25T01:17:36.660Z,12.73
2019-03-25T01:20:09.064Z,15.00
2019-03-25T01:22:37.901Z,19.27
2019-03-25T01:25:08.235Z,16.20
2019-03-25T01:27:37.074Z,15.70
2019-03-25T01:30:08.043Z,15.87
2019-03-25T01:32:36.914Z,16.33
2019-03-25T01:35:06.870Z,17.43
2019-03-25T01:37:35.707Z,19.23
2019-03-25T01:40:07.075Z,17.27
2019-03-25T01:42:36.012Z,19.33
2019-03-25T01:45:06.579Z,14.33
2019-03-25T01:47:35.451Z,16.87
2019-03-25T01:50:07.875Z,16.30
2019-03-25T01:52:36.735Z,14.97
2019-03-25T01:55:13.382Z,19.70
2019-03-25T01:57:36.180Z,19.17
2019-03-25T02:00:07.455Z,17.73
2019-03-25T02:02:36.327Z,17.03
2019-03-25T02:05:06.557Z,16.03
2019-03-25T02:07:35.427Z,17.53
2019-03-25T02:10:06.305Z,19.53
2019-03-25T02:12:35.126Z,19.33
2019-03-25T02:15:04.109Z,15.77
2019-03-25T02:17:32.978Z,16.77
2019-03-25T02:20:01.808Z,21.00
2019-03-25T02:22:30.747Z,17.27
2019-03-25T02:24:59.648Z,17.67
2019-03-25T02:27:28.475Z,13.97
2019-03-25T02:29:57.338Z,16.87
2019-03-25T02:32:26.211Z,15.00
2019-03-25T02:34:55.648Z,17.20
2019-03-25T02:37:24.516Z,16.47
2019-03-25T02:39:53.394Z,15.97
2019-03-25T02:42:22.226Z,13.23
2019-03-25T02:44:51.093Z,16.33
2019-03-25T02:47:19.960Z,14.77
2019-03-25T02:49:48.809Z,13.80
2019-03-25T02:52:17.665Z,14.00
2019-03-25T02:54:46.526Z,14.37
2019-03-25T02:57:15.365Z,12.50
2019-03-25T02:59:44.229Z,14.80
2019-03-25T03:02:13.100Z,13.03
2019-03-25T03:04:41.921Z,14.23
2019-03-25T03:07:10.800Z,12.37
2019-03-25T03:09:39.958Z,14.47
2019-03-25T03:12:08.788Z,12.07
2019-03-25T03:14:37.651Z,13.30
2019-03-25T03:17:06.516Z,13.13
2019-03-25T03:19:35.353Z,13.07
2019-03-25T03:22:04.216Z,11.83
2019-03-25T03:24:33.093Z,13.87
2019-03-25T03:27:01.913Z,10.77
2019-03-25T03:29:30.787Z,21.00
2019-03-25T03:31:59.653Z,13.37
2019-03-25T03:34:28.493Z,14.70
2019-03-25T03:36:57.347Z,12.63
2019-03-25T03:39:26.225Z,11.30
2019-03-25T03:41:55.057Z,11.10
2019-03-25T03:44:23.916Z,10.83
2019-03-25T03:46:52.789Z,10.63
2019-03-25T03:49:21.618Z,11.07
2019-03-25T03:51:51.271Z,12.93
2019-03-25T03:54:20.250Z,10.30
2019-03-25T03:56:51.174Z,12.83
2019-03-25T03:59:20.451Z,9.93
2019-03-25T04:01:49.308Z,19.07
2019-03-25T04:04:18.136Z,11.40
2019-03-25T04:06:47.003Z,10.23
2019-03-25T04:09:15.885Z,7.53
2019-03-25T04:11:44.711Z,8.50
2019-03-25T04:14:13.568Z,9.73
2019-03-25T04:16:42.448Z,9.00
2019-03-25T04:19:11.376Z,8.47
2019-03-25T04:21:41.370Z,8.63
2019-03-25T04:24:10.272Z,7.97
2019-03-25T04:26:39.166Z,7.20
2019-03-25T04:29:08.065Z,11.37
2019-03-25T04:35:06.926Z,8.80
2019-03-25T04:37:35.969Z,8.03
2019-03-25T04:40:09.315Z,6.80
2019-03-25T04:42:38.191Z,10.67
2019-03-25T04:45:07.663Z,7.57
2019-03-25T04:47:36.486Z,5.43
2019-03-25T04:50:06.946Z,9.40
2019-03-25T04:52:35.817Z,10.27
2019-03-25T04:55:05.841Z,6.83
2019-03-25T04:57:34.708Z,8.80
2019-03-25T05:00:04.490Z,8.03
2019-03-25T05:02:33.307Z,9.70
2019-03-25T05:05:02.181Z,9.67
2019-03-25T05:07:31.053Z,6.30
2019-03-25T05:09:59.946Z,5.03
2019-03-25T05:12:28.915Z,7.00
2019-03-25T05:14:57.829Z,6.87
2019-03-25T05:17:26.721Z,4.00
2019-03-25T05:19:55.566Z,6.10
2019-03-25T05:22:24.423Z,9.73
2019-03-25T05:24:53.252Z,5.83
2019-03-25T05:27:22.183Z,6.40
2019-03-25T05:29:51.074Z,10.60
2019-03-25T05:32:19.968Z,7.93
2019-03-25T05:34:48.817Z,8.03
2019-03-25T05:37:17.686Z,7.60
2019-03-25T05:39:46.516Z,8.07
2019-03-25T05:42:15.358Z,9.10
2019-03-25T05:44:44.230Z,8.00
2019-03-25T05:47:13.055Z,7.37
2019-03-25T05:49:41.917Z,8.87
2019-03-25T05:52:10.774Z,6.17
2019-03-25T05:54:39.604Z,9.00
2019-03-25T05:57:08.475Z,7.00
2019-03-25T05:59:37.347Z,9.00
2019-03-25T06:02:06.173Z,5.10
2019-03-25T06:04:35.143Z,7.37
2019-03-25T06:07:05.944Z,4.33
2019-03-25T06:09:34.563Z,5.97
2019-03-25T06:12:03.426Z,5.67
2019-03-25T06:14:32.346Z,7.37
2019-03-25T06:17:01.339Z,6.90
2019-03-25T06:19:31.925Z,6.03
2019-03-25T06:22:00.862Z,6.03
2019-03-25T06:24:29.671Z,5.03
2019-03-25T06:26:58.644Z,6.23
2019-03-25T06:29:27.484Z,8.57
2019-03-25T06:31:56.307Z,7.07
2019-03-25T06:34:25.167Z,7.90
2019-03-25T06:36:54.041Z,9.90
2019-03-25T06:39:22.864Z,7.40
2019-03-25T06:41:51.733Z,8.83
2019-03-25T06:44:20.615Z,7.03
2019-03-25T06:46:49.572Z,8.27
2019-03-25T06:49:18.463Z,6.27
2019-03-25T06:51:47.328Z,4.17
2019-03-25T06:54:16.247Z,8.27
2019-03-25T06:56:45.135Z,8.13
2019-03-25T06:59:14.025Z,8.33
2019-03-25T07:01:42.917Z,9.43
2019-03-25T07:04:11.809Z,7.53
2019-03-25T07:06:40.705Z,5.37
2019-03-25T07:09:09.795Z,8.20
2019-03-25T07:11:40.244Z,9.47
2019-03-25T07:14:09.191Z,6.27
2019-03-25T07:16:38.108Z,9.30
2019-03-25T07:19:08.081Z,7.37
2019-03-25T07:21:37.017Z,9.03
2019-03-25T07:24:42.171Z,6.13
2019-03-25T07:27:11.099Z,6.03
2019-03-25T07:29:39.885Z,7.47
2019-03-25T07:32:09.126Z,6.00
2019-03-25T07:34:38.014Z,7.40
2019-03-25T07:37:06.840Z,7.57
2019-03-25T07:39:35.739Z,7.70
2019-03-25T07:42:04.611Z,11.23
2019-03-25T07:44:33.428Z,7.63
2019-03-25T07:47:02.310Z,5.03
2019-03-25T07:49:31.158Z,8.47
2019-03-25T07:51:59.983Z,7.73
2019-03-25T07:54:28.872Z,7.53
2019-03-25T07:56:57.734Z,7.53
2019-03-25T07:59:26.665Z,5.77
2019-03-25T08:02:02.797Z,7.37
2019-03-25T08:04:34.337Z,8.03
2019-03-25T08:07:02.949Z,10.40
2019-03-25T08:09:33.674Z,7.83
2019-03-25T08:12:02.640Z,10.57
2019-03-25T08:14:31.545Z,6.43
2019-03-25T08:17:00.446Z,11.23
2019-03-25T08:19:30.978Z,6.40
2019-03-25T08:21:59.866Z,6.67
2019-03-25T08:24:28.758Z,9.10
2019-03-25T08:26:57.756Z,13.00
2019-03-25T08:29:26.643Z,8.30
2019-03-25T08:31:55.534Z,9.47
2019-03-25T08:34:24.430Z,8.53
2019-03-25T08:36:53.315Z,6.93
2019-03-25T08:39:22.206Z,7.13
2019-03-25T08:41:51.099Z,8.13
2019-03-25T08:44:20.297Z,10.43
2019-03-25T08:46:49.288Z,7.33
2019-03-25T08:49:18.181Z,7.70
2019-03-25T08:52:38.777Z,9.63
2019-03-25T08:55:08.085Z,6.47
2019-03-25T08:57:36.980Z,7.13
2019-03-25T09:00:08.533Z,5.70
2019-03-25T09:02:37.423Z,5.77
2019-03-25T09:05:07.928Z,7.63
2019-03-25T09:07:36.930Z,8.20
2019-03-25T09:10:09.219Z,6.67
2019-03-25T09:12:38.311Z,6.97
2019-03-25T09:15:10.456Z,10.03
2019-03-25T09:17:39.370Z,7.10
2019-03-25T09:20:08.778Z,6.10
2019-03-25T09:22:37.847Z,6.37
2019-03-25T09:25:09.836Z,6.00
2019-03-25T09:27:38.697Z,8.47
2019-03-25T09:30:11.420Z,8.20
2019-03-25T09:32:40.501Z,6.57
2019-03-25T09:35:10.203Z,8.00
2019-03-25T09:37:39.818Z,8.93
2019-03-25T09:40:10.965Z,8.07
2019-03-25T09:42:39.855Z,6.13
2019-03-25T09:45:09.951Z,6.47
2019-03-25T09:47:38.865Z,7.80
2019-03-25T09:50:08.664Z,8.23
2019-03-25T09:52:38.683Z,7.67
2019-03-25T09:55:08.896Z,8.17
2019-03-25T09:57:37.809Z,8.93
2019-03-25T10:00:11.925Z,5.60
2019-03-25T10:02:40.788Z,10.20
2019-03-25T10:05:09.911Z,7.63
2019-03-25T10:07:38.904Z,6.63
2019-03-25T10:10:10.867Z,8.17
2019-03-25T10:12:39.762Z,4.77
2019-03-25T10:15:09.470Z,7.27
2019-03-25T10:17:38.438Z,5.97
2019-03-25T10:20:10.287Z,9.13
2019-03-25T10:22:39.131Z,6.87
2019-03-25T10:25:09.027Z,6.87
2019-03-25T10:27:38.002Z,9.07
2019-03-25T10:30:09.835Z,8.47
2019-03-25T10:32:38.708Z,7.00
2019-03-25T10:35:08.136Z,8.47
2019-03-25T10:37:37.002Z,7.90
2019-03-25T10:40:06.667Z,6.57
2019-03-25T10:42:35.493Z,10.00
2019-03-25T10:45:08.295Z,5.47
2019-03-25T10:47:37.168Z,5.10
2019-03-25T10:50:06.892Z,5.47
2019-03-25T10:52:35.843Z,7.07
2019-03-25T10:55:08.522Z,5.53
2019-03-25T10:57:37.617Z,6.40
2019-03-25T11:00:11.847Z,5.43
2019-03-25T11:02:40.827Z,5.30
2019-03-25T11:08:38.597Z,8.30
2019-03-25T11:11:08.558Z,7.37
2019-03-25T11:13:37.629Z,8.97
2019-03-25T11:16:06.520Z,6.20
2019-03-25T11:18:35.355Z,4.97
2019-03-25T11:21:04.182Z,6.03
2019-03-25T11:23:33.064Z,6.40
2019-03-25T11:26:01.911Z,5.37
2019-03-25T11:28:30.739Z,8.17
2019-03-25T11:30:59.919Z,4.77
2019-03-25T11:33:28.888Z,5.03
2019-03-25T11:35:57.815Z,7.50
2019-03-25T11:38:26.682Z,9.87
2019-03-25T11:40:55.584Z,5.20
2019-03-25T11:43:24.403Z,6.27
2019-03-25T11:45:53.372Z,3.93
2019-03-25T11:48:22.263Z,6.17
2019-03-25T11:50:51.131Z,5.27
2019-03-25T11:53:19.995Z,7.77
2019-03-25T11:55:48.859Z,5.83
2019-03-25T11:58:17.796Z,7.07
2019-03-25T12:00:46.771Z,5.53
2019-03-25T12:03:15.644Z,5.67
2019-03-25T12:05:46.270Z,3.50
2019-03-25T12:08:15.181Z,1.50
2019-03-25T12:10:44.071Z,2.97
2019-03-25T12:13:12.963Z,1.23
2019-03-25T12:15:41.854Z,2.03
2019-03-25T12:19:02.563Z,1.70
2019-03-25T12:21:31.436Z,0.90
2019-03-25T12:24:01.314Z,0.97
2019-03-25T12:26:32.155Z,0.40
2019-03-25T12:29:00.793Z,0.60
2019-03-25T12:31:29.679Z,1.83
2019-03-25T12:33:58.571Z,1.10
2019-03-25T12:36:27.435Z,1.43
2019-03-25T12:38:58.039Z,2.60
2019-03-25T12:41:26.958Z,0.80
2019-03-25T12:44:22.105Z,2.50
2019-03-25T12:46:50.977Z,3.03
2019-03-25T12:49:19.815Z,4.30
2019-03-25T12:51:48.707Z,3.13
2019-03-25T12:54:17.658Z,3.17
2019-03-25T12:56:46.547Z,2.80
2019-03-25T12:59:15.440Z,2.57
2019-03-25T13:01:52.577Z,2.77
2019-03-25T13:04:14.860Z,1.97
2019-03-25T13:06:43.696Z,3.47
2019-03-25T13:09:12.565Z,2.50
2019-03-25T13:11:41.387Z,2.43
2019-03-25T13:14:10.328Z,4.33
2019-03-25T13:16:39.321Z,3.47
2019-03-25T13:19:08.210Z,2.63
2019-03-25T13:21:37.105Z,1.73
2019-03-25T13:24:05.964Z,1.70
2019-03-25T13:26:34.881Z,1.77
2019-03-25T13:29:03.777Z,2.37
2019-03-25T13:31:32.765Z,1.53
2019-03-25T13:34:01.659Z,2.17
2019-03-25T13:36:30.549Z,3.27
2019-03-25T13:38:59.439Z,2.17
2019-03-25T13:41:30.015Z,3.77
2019-03-25T13:43:58.867Z,3.13
2019-03-25T13:46:27.735Z,2.10
2019-03-25T13:48:56.572Z,2.40
2019-03-25T13:51:25.424Z,2.40
2019-03-25T13:53:54.295Z,2.80
2019-03-25T13:56:23.133Z,3.43
2019-03-25T13:58:52.032Z,2.33
2019-03-25T14:01:20.935Z,2.07
2019-03-25T14:03:49.751Z,3.70
2019-03-25T14:06:18.623Z,3.93
2019-03-25T14:08:47.483Z,2.97
2019-03-25T14:11:16.507Z,1.70
2019-03-25T14:13:49.407Z,1.33
2019-03-25T14:16:15.894Z,0.93
2019-03-25T14:18:44.724Z,0.60
2019-03-25T14:21:13.584Z,0.40
2019-03-25T14:23:42.446Z,0.77
2019-03-25T14:26:11.279Z,0.40
2019-03-25T14:28:40.147Z,0.70
2019-03-25T14:31:09.011Z,0.50
2019-03-25T14:33:37.839Z,0.83
2019-03-25T14:36:06.696Z,0.90
2019-03-25T14:38:35.559Z,0.93
2019-03-25T14:41:04.384Z,0.40
2019-03-25T14:43:33.251Z,1.27
2019-03-25T14:46:02.110Z,1.00
2019-03-25T14:48:30.939Z,0.77
2019-03-25T14:51:05.939Z,0.77
2019-03-25T14:53:44.820Z,0.83
2019-03-25T14:56:05.285Z,5.00
2019-03-25T14:58:34.137Z,0.80
2019-03-25T15:01:03.455Z,0.87
2019-03-25T15:03:32.215Z,1.73
2019-03-25T15:06:01.087Z,1.77
2019-03-25T15:08:29.947Z,1.77
2019-03-25T15:10:58.772Z,3.80
2019-03-25T15:13:27.642Z,1.33
2019-03-25T15:15:56.506Z,1.60
2019-03-25T15:18:25.327Z,3.43
2019-03-25T15:20:54.300Z,1.53
2019-03-25T15:23:23.314Z,3.90
2019-03-25T15:25:53.324Z,2.47
2019-03-25T15:28:22.331Z,1.90
2019-03-25T15:30:51.221Z,1.43
2019-03-25T15:33:20.111Z,1.90
2019-03-25T15:35:48.942Z,2.60
2019-03-25T15:38:17.864Z,0.50
2019-03-25T15:40:46.785Z,0.53
2019-03-25T15:43:58.376Z,0.43
2019-03-25T15:46:27.356Z,1.77
2019-03-25T15:48:56.236Z,0.57
2019-03-25T15:51:25.155Z,1.40
2019-03-25T15:53:54.043Z,0.70
2019-03-25T15:56:22.914Z,1.47
2019-03-25T15:58:51.802Z,1.37
2019-03-25T16:01:20.669Z,0.90
2019-03-25T16:03:49.609Z,0.93
2019-03-25T16:06:18.503Z,0.40
2019-03-25T16:08:47.437Z,0.93
2019-03-25T16:11:16.384Z,0.80
2019-03-25T16:13:45.275Z,1.03
2019-03-25T16:16:14.167Z,1.00
2019-03-25T16:18:43.060Z,0.73
2019-03-25T16:21:11.951Z,1.90
2019-03-25T16:23:41.147Z,1.00
2019-03-25T16:26:10.120Z,0.80
2019-03-25T16:28:39.006Z,0.83
2019-03-25T16:31:08.026Z,1.20
2019-03-25T16:33:36.917Z,2.40
2019-03-25T16:36:05.911Z,1.07
2019-03-25T16:38:34.803Z,1.20
2019-03-25T16:41:03.695Z,1.20
2019-03-25T16:43:32.589Z,1.33
2019-03-25T16:46:01.483Z,1.27
2019-03-25T16:48:30.283Z,2.20
2019-03-25T16:50:59.265Z,2.63
2019-03-25T16:53:28.061Z,4.73
2019-03-25T16:55:56.912Z,2.70
2019-03-25T16:58:25.830Z,4.97
2019-03-25T17:00:54.721Z,5.87
2019-03-25T17:03:23.612Z,2.30
2019-03-25T17:05:52.503Z,2.67
2019-03-25T17:08:21.496Z,3.93
2019-03-25T17:10:50.490Z,6.77
2019-03-25T17:13:19.592Z,8.10
2019-03-25T17:15:48.481Z,5.77
2019-03-25T17:18:17.369Z,4.00
2019-03-25T17:20:46.261Z,2.33
2019-03-25T17:23:15.153Z,3.37
2019-03-25T17:25:52.717Z,5.87
2019-03-25T17:28:14.601Z,2.40
2019-03-25T17:30:43.567Z,4.17
2019-03-25T17:33:12.459Z,2.60
2019-03-25T17:35:41.452Z,1.83
2019-03-25T17:38:10.344Z,2.17
2019-03-25T17:41:06.167Z,1.87
2019-03-25T17:43:35.028Z,1.90
2019-03-25T17:46:03.863Z,2.87
2019-03-25T17:48:32.723Z,3.37
2019-03-25T17:51:01.604Z,5.50
2019-03-25T17:53:30.428Z,3.53
2019-03-25T17:55:59.414Z,5.70
2019-03-25T17:58:28.405Z,4.50
2019-03-25T18:01:03.130Z,3.53
2019-03-25T18:03:32.108Z,3.23
2019-03-25T18:06:01.018Z,2.77
2019-03-25T18:08:30.010Z,2.90
2019-03-25T18:10:58.878Z,2.23
2019-03-25T18:13:27.795Z,3.83
2019-03-25T18:15:56.663Z,1.93
2019-03-25T18:18:25.575Z,2.00
2019-03-25T18:20:54.466Z,1.50
2019-03-25T18:23:56.637Z,1.73
2019-03-25T18:26:25.531Z,2.03
2019-03-25T18:28:54.421Z,2.90
2019-03-25T18:31:23.516Z,2.53
2019-03-25T18:33:52.509Z,1.77
2019-03-25T18:36:21.540Z,2.50
2019-03-25T18:38:50.408Z,2.13
2019-03-25T18:41:19.272Z,1.60
2019-03-25T18:43:50.663Z,1.67
2019-03-25T18:46:19.532Z,1.83
2019-03-25T18:49:03.603Z,2.83
2019-03-25T18:51:32.487Z,2.00
2019-03-25T18:54:01.339Z,2.37
2019-03-25T18:56:30.194Z,2.20
2019-03-25T18:58:59.051Z,3.10
2019-03-25T19:01:33.371Z,6.33
2019-03-25T19:04:02.662Z,3.33
2019-03-25T19:06:31.770Z,2.93
2019-03-25T19:09:00.758Z,2.30
2019-03-25T19:11:32.592Z,4.67
2019-03-25T19:14:01.505Z,2.77
2019-03-25T19:16:30.393Z,2.40
2019-03-25T19:18:59.279Z,2.30
2019-03-25T19:21:28.272Z,2.57
2019-03-25T19:23:57.200Z,4.10
2019-03-25T19:26:26.055Z,2.17
2019-03-25T19:28:54.946Z,4.83
2019-03-25T19:31:23.855Z,5.33
2019-03-25T19:33:52.756Z,2.57
2019-03-25T19:36:21.619Z,2.73
2019-03-25T19:38:50.555Z,3.13
2019-03-25T19:41:31.513Z,3.63
2019-03-25T19:43:50.038Z,3.13
2019-03-25T19:46:18.955Z,2.07
2019-03-25T19:48:47.818Z,3.77
2019-03-25T19:51:16.737Z,3.67
2019-03-25T19:53:45.701Z,1.97
2019-03-25T19:56:14.592Z,2.97
2019-03-25T19:58:43.600Z,2.90
2019-03-25T20:01:12.489Z,2.57
2019-03-25T20:03:41.368Z,2.43
2019-03-25T20:06:10.376Z,3.10
2019-03-25T20:08:39.282Z,2.57
2019-03-25T20:11:08.145Z,2.67
2019-03-25T20:13:37.134Z,3.33
2019-03-25T20:16:06.549Z,3.07
2019-03-25T20:18:35.432Z,2.70
2019-03-25T20:21:04.420Z,2.87
2019-03-25T20:23:33.482Z,3.57
2019-03-25T20:26:02.451Z,2.77
2019-03-25T20:28:31.428Z,2.97
2019-03-25T20:31:00.503Z,2.27
2019-03-25T20:33:29.398Z,4.33
2019-03-25T20:36:31.714Z,4.57
2019-03-25T20:39:01.646Z,3.00
2019-03-25T20:41:30.591Z,3.73
2019-03-25T20:43:59.615Z,3.27
2019-03-25T20:46:28.777Z,4.67
2019-03-25T20:48:58.685Z,3.20
2019-03-25T20:51:27.597Z,3.17
2019-03-25T20:53:56.620Z,2.60
2019-03-25T20:56:25.540Z,2.50
2019-03-25T20:58:54.684Z,2.03
2019-03-25T21:01:23.605Z,3.77
2019-03-25T21:03:52.474Z,1.67
2019-03-25T21:06:21.380Z,1.53
2019-03-25T21:08:50.243Z,3.73
2019-03-25T21:11:20.024Z,1.30
2019-03-25T21:13:48.888Z,4.47
2019-03-25T21:16:17.835Z,1.37
2019-03-25T21:18:46.716Z,7.43
2019-03-25T21:21:15.577Z,2.73
2019-03-25T21:23:44.427Z,1.67
2019-03-25T21:26:13.343Z,2.03
2019-03-25T21:28:42.251Z,0.63
2019-03-25T21:31:11.114Z,1.93
2019-03-25T21:33:39.995Z,2.93
2019-03-25T21:36:08.823Z,1.80
2019-03-25T21:38:37.687Z,2.70
2019-03-25T21:41:06.523Z,0.70
2019-03-25T21:43:35.442Z,1.13
2019-03-25T21:46:04.324Z,0.47
2019-03-25T21:48:33.260Z,0.77
2019-03-25T21:51:02.110Z,2.40
2019-03-25T21:53:30.979Z,2.60
2019-03-25T21:55:59.890Z,2.30
2019-03-25T21:58:28.766Z,2.40
2019-03-25T22:00:57.666Z,1.63
2019-03-25T22:03:26.464Z,2.90
2019-03-25T22:05:55.340Z,0.80
2019-03-25T22:08:24.203Z,0.80
2019-03-25T22:10:53.221Z,0.70
2019-03-25T22:13:22.068Z,1.30
2019-03-25T22:15:50.936Z,0.60
2019-03-25T22:18:19.766Z,1.80
2019-03-25T22:20:48.628Z,1.57
2019-03-25T22:23:17.487Z,2.30
2019-03-25T22:25:46.328Z,0.83
2019-03-25T22:28:15.188Z,2.27
2019-03-25T22:30:44.051Z,0.80
2019-03-25T22:33:25.088Z,2.03
2019-03-25T22:35:43.426Z,2.53
2019-03-25T22:38:12.292Z,2.23
2019-03-25T22:40:41.117Z,1.40
2019-03-25T22:43:09.983Z,2.60
2019-03-25T22:45:38.846Z,2.70
2019-03-25T22:48:07.756Z,1.40
2019-03-25T22:50:36.644Z,1.83
2019-03-25T22:53:05.587Z,3.67
2019-03-25T22:55:34.412Z,3.10
2019-03-25T22:58:03.279Z,3.57
2019-03-25T23:00:33.714Z,6.57
2019-03-25T23:03:02.560Z,4.90
2019-03-25T23:05:31.400Z,4.23
2019-03-25T23:08:00.254Z,3.43
2019-03-25T23:10:29.094Z,3.77
2019-03-25T23:12:57.968Z,2.30
2019-03-25T23:15:26.835Z,3.07
2019-03-25T23:17:55.670Z,3.43
2019-03-25T23:20:24.520Z,4.23
2019-03-25T23:22:53.391Z,2.43
2019-03-25T23:25:22.225Z,2.43
2019-03-25T23:27:51.187Z,3.33
2019-03-25T23:30:20.051Z,1.20
2019-03-25T23:32:48.875Z,1.67
2019-03-25T23:35:17.743Z,0.90
2019-03-25T23:37:46.612Z,1.83
2019-03-25T23:40:15.453Z,2.33
2019-03-25T23:42:44.299Z,2.67
2019-03-25T23:45:13.667Z,1.20
2019-03-25T23:47:42.492Z,1.30
2019-03-25T23:50:11.367Z,2.27
2019-03-25T23:52:40.232Z,1.47
2019-03-25T23:55:09.459Z,2.90
2019-03-25T23:57:38.330Z,2.83
